Terminal Aerodrome Forecast
Issued by NWS

Current Version | Previous Version | Text Only | Print | Product List | Glossary On
Versions: 1 2 3 4 5 6 7 8 9 10 11 12 13 14 15 16 17 18 19 20 21 22 23 24 25
688
FTUS41 KPBZ 130723 AAB
TAFLBE
TAF AMD
KLBE 130723Z 1307/1406 28011G17KT P6SM -SHSN FEW007 SCT040 BKN050
      TEMPO 1307/1311 2SM -SHSN OVC011
     FM131600 30012G25KT P6SM -SHSN BKN035=

USA.gov is the U.S. government's official web portal to all federal, state and local government web resources and services.